createdAt,value
2018-06-01T00:01:42.986Z,20.00
2018-06-01T00:03:45.481Z,20.00
2018-06-01T00:05:47.944Z,19.90
2018-06-01T00:07:50.386Z,19.90
2018-06-01T00:09:52.925Z,19.80
2018-06-01T00:11:55.355Z,19.80
2018-06-01T00:13:57.805Z,19.70
2018-06-01T00:16:00.244Z,19.70
2018-06-01T00:18:03.465Z,19.70
2018-06-01T00:20:05.917Z,19.70
2018-06-01T00:22:09.144Z,19.60
2018-06-01T00:24:11.612Z,19.60
2018-06-01T00:26:14.062Z,19.60
2018-06-01T00:28:16.548Z,19.50
2018-06-01T00:30:18.990Z,19.50
2018-06-01T00:32:21.492Z,19.50
2018-06-01T00:34:23.956Z,19.50
2018-06-01T00:36:26.432Z,19.50
2018-06-01T00:38:28.884Z,19.60
2018-06-01T00:40:31.370Z,19.60
2018-06-01T00:42:33.849Z,19.60
2018-06-01T00:44:36.297Z,19.60
2018-06-01T00:46:38.810Z,19.60
2018-06-01T00:48:41.241Z,19.50
2018-06-01T00:50:43.705Z,19.50
2018-06-01T00:52:46.200Z,19.40
2018-06-01T00:55:00.604Z,19.40
2018-06-01T00:57:03.809Z,19.30
2018-06-01T00:59:06.259Z,19.30
2018-06-01T01:01:09.569Z,19.20
2018-06-01T01:03:12.753Z,19.20
2018-06-01T01:05:15.260Z,19.20
2018-06-01T01:07:17.721Z,19.20
2018-06-01T01:09:20.189Z,19.30
2018-06-01T01:11:22.630Z,19.30
2018-06-01T01:13:25.069Z,19.30
2018-06-01T01:15:27.589Z,19.40
2018-06-01T01:17:30.017Z,19.40
2018-06-01T01:19:33.232Z,19.40
2018-06-01T01:21:35.686Z,19.40
2018-06-01T01:23:38.917Z,19.30
2018-06-01T01:25:41.383Z,19.30
2018-06-01T01:27:43.849Z,19.30
2018-06-01T01:29:46.324Z,19.30
2018-06-01T01:31:48.769Z,19.20
2018-06-01T01:33:51.212Z,19.20
2018-06-01T01:35:54.452Z,19.20
2018-06-01T01:37:56.921Z,19.20
2018-06-01T01:39:59.410Z,19.20
2018-06-01T01:42:01.852Z,19.20
2018-06-01T01:44:04.329Z,19.20
2018-06-01T01:46:06.781Z,19.30
2018-06-01T01:48:09.225Z,19.20
2018-06-01T01:50:12.468Z,19.20
2018-06-01T01:52:14.924Z,19.20
2018-06-01T01:54:17.369Z,19.20
2018-06-01T01:56:19.873Z,19.30
2018-06-01T01:58:22.336Z,19.20
2018-06-01T02:00:24.801Z,19.20
2018-06-01T02:02:27.221Z,19.30
2018-06-01T02:04:29.663Z,19.30
2018-06-01T02:06:32.117Z,19.30
2018-06-01T02:08:34.584Z,19.30
2018-06-01T02:10:37.037Z,19.20
2018-06-01T02:12:39.475Z,19.20
2018-06-01T02:14:42.697Z,19.20
2018-06-01T02:16:45.147Z,19.20
2018-06-01T02:18:48.475Z,19.20
2018-06-01T02:20:50.954Z,19.20
2018-06-01T02:22:53.400Z,19.20
2018-06-01T02:24:55.849Z,19.20
2018-06-01T02:26:59.280Z,19.20
2018-06-01T02:29:01.731Z,19.20
2018-06-01T02:31:04.174Z,19.20
2018-06-01T02:33:07.408Z,19.30
2018-06-01T02:35:09.875Z,19.30
2018-06-01T02:37:12.504Z,19.30
2018-06-01T02:39:15.713Z,19.20
2018-06-01T02:41:18.170Z,19.20
2018-06-01T02:43:21.390Z,19.20
2018-06-01T02:45:23.849Z,19.20
2018-06-01T02:47:26.280Z,19.20
2018-06-01T02:49:29.497Z,19.20
2018-06-01T02:51:32.005Z,19.20
2018-06-01T02:53:34.465Z,19.20
2018-06-01T02:55:36.934Z,19.20
2018-06-01T02:57:39.383Z,19.20
2018-06-01T02:59:41.828Z,19.20
2018-06-01T03:01:45.068Z,19.30
2018-06-01T03:03:47.528Z,19.20
2018-06-01T03:05:49.987Z,19.20
2018-06-01T03:07:52.473Z,19.30
2018-06-01T03:09:54.923Z,19.20
2018-06-01T03:11:57.372Z,19.20
2018-06-01T03:14:00.597Z,19.20
2018-06-01T03:16:03.050Z,19.20
2018-06-01T03:18:05.532Z,19.20
2018-06-01T03:20:08.036Z,19.10
2018-06-01T03:22:10.581Z,19.10
2018-06-01T03:24:13.054Z,19.10
2018-06-01T03:26:15.764Z,19.10
2018-06-01T03:28:18.177Z,19.10
2018-06-01T03:30:20.648Z,19.10
2018-06-01T03:32:23.229Z,19.20
2018-06-01T03:34:25.672Z,19.20
2018-06-01T03:36:28.895Z,19.30
2018-06-01T03:38:31.488Z,19.30
2018-06-01T03:40:33.949Z,19.30
2018-06-01T03:42:36.422Z,19.30
2018-06-01T03:44:38.893Z,19.30
2018-06-01T03:46:41.340Z,19.20
2018-06-01T03:48:43.834Z,19.10
2018-06-01T03:50:46.284Z,19.20
2018-06-01T03:52:48.735Z,19.30
2018-06-01T03:54:51.235Z,19.30
2018-06-01T03:56:53.675Z,19.40
2018-06-01T03:58:56.116Z,19.50
2018-06-01T04:00:59.333Z,19.70
2018-06-01T04:03:01.821Z,19.70
2018-06-01T04:05:04.229Z,19.80
2018-06-01T04:07:06.762Z,19.80
2018-06-01T04:09:09.217Z,19.80
2018-06-01T04:11:11.660Z,19.90
2018-06-01T04:13:14.865Z,20.10
2018-06-01T04:15:17.332Z,20.10
2018-06-01T04:17:19.828Z,20.20
2018-06-01T04:19:22.281Z,20.30
2018-06-01T04:21:24.781Z,20.30
2018-06-01T04:23:27.240Z,20.50
2018-06-01T04:25:29.695Z,20.60
2018-06-01T04:27:32.184Z,20.80
2018-06-01T04:29:34.633Z,20.80
2018-06-01T04:31:37.081Z,20.80
2018-06-01T04:33:40.288Z,21.00
2018-06-01T04:35:42.790Z,21.00
2018-06-01T04:37:45.242Z,21.00
2018-06-01T04:39:47.681Z,21.10
2018-06-01T04:41:50.878Z,21.40
2018-06-01T04:43:53.333Z,21.30
2018-06-01T04:45:56.544Z,21.50
2018-06-01T04:47:58.998Z,21.50
2018-06-01T04:50:02.206Z,21.70
2018-06-01T04:52:04.654Z,21.70
2018-06-01T04:54:07.889Z,22.00
2018-06-01T04:56:10.388Z,21.90
2018-06-01T04:58:12.794Z,22.20
2018-06-01T05:00:15.291Z,22.60
2018-06-01T05:02:17.735Z,22.80
2018-06-01T05:04:20.228Z,23.10
2018-06-01T05:06:22.705Z,23.10
2018-06-01T05:08:25.150Z,23.20
2018-06-01T05:10:28.365Z,23.60
2018-06-01T05:12:30.832Z,23.60
2018-06-01T05:14:33.282Z,23.90
2018-06-01T05:16:35.757Z,24.00
2018-06-01T05:18:38.945Z,24.10
2018-06-01T05:20:41.383Z,24.10
2018-06-01T05:22:44.581Z,23.90
2018-06-01T05:24:47.024Z,23.90
2018-06-01T05:26:49.476Z,23.80
2018-06-01T05:28:51.906Z,23.50
2018-06-01T05:30:54.353Z,23.40
2018-06-01T05:32:57.564Z,23.20
2018-06-01T05:35:00.001Z,23.20
2018-06-01T05:37:03.217Z,23.20
2018-06-01T05:39:05.645Z,23.10
2018-06-01T05:41:08.090Z,23.30
2018-06-01T05:43:10.541Z,23.30
2018-06-01T05:45:13.023Z,23.30
2018-06-01T05:47:15.524Z,23.30
2018-06-01T05:49:17.920Z,23.30
2018-06-01T05:51:21.126Z,23.30
2018-06-01T05:53:23.573Z,23.20
2018-06-01T05:55:26.814Z,23.20
2018-06-01T05:57:29.273Z,23.20
2018-06-01T05:59:31.721Z,23.20
2018-06-01T06:01:34.208Z,23.30
2018-06-01T06:03:36.652Z,23.50
2018-06-01T06:05:39.097Z,23.70
2018-06-01T06:07:41.543Z,23.80
2018-06-01T06:09:43.972Z,23.90
2018-06-01T06:11:46.461Z,24.10
2018-06-01T06:13:48.906Z,24.10
2018-06-01T06:15:51.344Z,24.20
2018-06-01T06:17:54.551Z,24.70
2018-06-01T06:19:57.756Z,25.00
2018-06-01T06:22:00.199Z,25.00
2018-06-01T06:24:03.432Z,25.60
2018-06-01T06:26:05.902Z,25.60
2018-06-01T06:28:08.361Z,26.10
2018-06-01T06:30:10.794Z,26.70
2018-06-01T06:32:14.030Z,27.60
2018-06-01T06:34:16.464Z,27.60
2018-06-01T06:36:19.680Z,28.50
2018-06-01T06:38:22.129Z,28.50
2018-06-01T06:40:24.561Z,29.00
2018-06-01T06:42:27.064Z,29.50
2018-06-01T06:44:30.272Z,29.70
2018-06-01T06:46:32.721Z,29.60
2018-06-01T06:48:35.945Z,29.90
2018-06-01T06:50:38.497Z,29.90
2018-06-01T06:52:40.984Z,30.30
2018-06-01T06:54:43.452Z,30.70
2018-06-01T06:56:45.924Z,30.80
2018-06-01T06:58:48.397Z,30.70
2018-06-01T07:00:50.852Z,30.40
2018-06-01T07:02:53.289Z,30.10
2018-06-01T07:04:56.524Z,29.70
2018-06-01T07:06:58.992Z,29.70
2018-06-01T07:09:01.433Z,29.50
2018-06-01T07:11:04.643Z,28.60
2018-06-01T07:13:07.129Z,28.60
2018-06-01T07:15:09.610Z,28.20
2018-06-01T07:17:13.261Z,27.90
2018-06-01T07:19:16.466Z,27.50
2018-06-01T07:21:18.897Z,27.40
2018-06-01T07:23:22.100Z,27.30
2018-06-01T07:25:25.325Z,27.30
2018-06-01T07:27:27.785Z,27.20
2018-06-01T07:29:30.240Z,27.30
2018-06-01T07:31:33.432Z,27.20
2018-06-01T07:33:35.889Z,27.20
2018-06-01T07:35:39.076Z,27.00
2018-06-01T07:37:41.568Z,27.00
2018-06-01T07:39:44.015Z,26.90
2018-06-01T07:41:47.213Z,26.70
2018-06-01T07:43:49.658Z,26.70
2018-06-01T07:45:52.872Z,26.60
2018-06-01T07:47:56.181Z,26.50
2018-06-01T07:49:58.653Z,26.50
2018-06-01T07:52:01.125Z,26.40
2018-06-01T07:54:03.561Z,26.40
2018-06-01T07:56:06.063Z,26.40
2018-06-01T07:58:08.537Z,26.20
2018-06-01T08:00:11.000Z,26.10
2018-06-01T08:02:13.477Z,25.80
2018-06-01T08:04:15.913Z,25.50
2018-06-01T08:06:18.394Z,25.30
2018-06-01T08:08:21.592Z,24.80
2018-06-01T08:10:24.029Z,24.80
2018-06-01T08:12:27.229Z,24.50
2018-06-01T08:14:29.676Z,24.50
2018-06-01T08:16:32.916Z,24.40
2018-06-01T08:18:35.364Z,24.40
2018-06-01T08:20:37.820Z,24.30
2018-06-01T08:22:41.969Z,24.30
2018-06-01T08:24:44.424Z,24.30
2018-06-01T08:26:46.860Z,24.20
2018-06-01T08:28:50.092Z,24.30
2018-06-01T08:30:52.535Z,24.20
2018-06-01T08:32:54.968Z,24.30
2018-06-01T08:34:57.730Z,24.40
2018-06-01T08:37:00.161Z,24.40
2018-06-01T08:39:02.610Z,24.50
2018-06-01T08:41:05.810Z,24.50
2018-06-01T08:43:08.300Z,24.50
2018-06-01T08:45:10.752Z,24.50
2018-06-01T08:47:13.176Z,24.60
2018-06-01T08:49:15.617Z,24.50
2018-06-01T08:51:18.081Z,24.50
2018-06-01T08:53:21.515Z,24.40
2018-06-01T08:55:24.049Z,24.40
2018-06-01T08:57:26.516Z,24.20
2018-06-01T08:59:34.868Z,24.10
2018-06-01T09:01:37.393Z,24.10
2018-06-01T09:03:39.852Z,24.00
2018-06-01T09:05:42.296Z,24.00
2018-06-01T09:07:45.520Z,23.70
2018-06-01T09:09:47.973Z,23.70
2018-06-01T09:11:50.404Z,23.60
2018-06-01T09:13:52.848Z,23.60
2018-06-01T09:15:55.304Z,23.50
2018-06-01T09:17:57.749Z,23.50
2018-06-01T09:20:00.952Z,23.30
2018-06-01T09:22:03.405Z,23.30
2018-06-01T09:24:05.898Z,23.30
2018-06-01T09:26:08.373Z,23.20
2018-06-01T09:28:10.899Z,23.20
2018-06-01T09:30:13.303Z,23.20
2018-06-01T09:32:15.784Z,23.10
2018-06-01T09:34:18.271Z,23.00
2018-06-01T09:36:20.684Z,22.90
2018-06-01T09:38:23.904Z,22.40
2018-06-01T09:40:26.389Z,22.40
2018-06-01T09:42:28.849Z,22.10
2018-06-01T09:44:31.314Z,22.00
2018-06-01T09:46:33.791Z,22.00
2018-06-01T09:48:36.234Z,22.00
2018-06-01T09:50:38.672Z,22.00
2018-06-01T09:52:41.932Z,22.00
2018-06-01T09:54:44.373Z,22.20
2018-06-01T09:56:46.862Z,22.30
2018-06-01T09:58:49.297Z,22.50
2018-06-01T10:00:57.379Z,22.60
2018-06-01T10:02:59.812Z,22.80
2018-06-01T10:05:02.261Z,23.00
2018-06-01T10:07:04.710Z,23.10
2018-06-01T10:09:07.217Z,23.30
2018-06-01T10:11:09.728Z,23.50
2018-06-01T10:13:12.932Z,23.90
2018-06-01T10:15:16.144Z,24.20
2018-06-01T10:17:18.590Z,24.20
2018-06-01T10:19:21.804Z,24.60
2018-06-01T10:21:24.245Z,24.60
2018-06-01T10:23:27.476Z,25.20
2018-06-01T10:25:29.941Z,25.10
2018-06-01T10:27:32.376Z,25.50
2018-06-01T10:29:34.880Z,25.70
2018-06-01T10:31:37.352Z,26.00
2018-06-01T10:33:39.799Z,26.30
2018-06-01T10:35:42.292Z,26.50
2018-06-01T10:37:44.724Z,26.80
2018-06-01T10:39:47.929Z,27.30
2018-06-01T10:41:50.368Z,27.30
2018-06-01T10:43:53.693Z,27.80
2018-06-01T10:45:56.180Z,27.80
2018-06-01T10:47:58.621Z,28.10
2018-06-01T10:50:01.061Z,28.40
2018-06-01T10:52:03.493Z,28.70
2018-06-01T10:54:05.957Z,29.10
2018-06-01T10:56:08.436Z,29.20
2018-06-01T10:58:11.612Z,29.40
2018-06-01T11:00:14.101Z,29.60
2018-06-01T11:02:16.556Z,29.80
2018-06-01T11:04:18.992Z,29.80
2018-06-01T11:06:21.493Z,29.80
2018-06-01T11:08:23.937Z,29.80
2018-06-01T11:10:27.136Z,29.60
2018-06-01T11:12:29.564Z,29.60
2018-06-01T11:14:32.003Z,29.60
2018-06-01T11:16:34.460Z,29.50
2018-06-01T11:18:36.928Z,29.50
2018-06-01T11:20:39.365Z,29.70
2018-06-01T11:22:42.574Z,30.10
2018-06-01T11:24:45.000Z,30.10
2018-06-01T11:26:48.251Z,30.20
2018-06-01T11:28:50.686Z,30.20
2018-06-01T11:30:53.612Z,30.30
2018-06-01T11:32:56.055Z,30.40
2018-06-01T11:34:58.541Z,30.40
2018-06-01T11:37:00.993Z,30.20
2018-06-01T11:39:03.422Z,30.20
2018-06-01T11:41:05.860Z,30.10
2018-06-01T11:43:08.300Z,29.90
2018-06-01T11:45:10.772Z,29.80
2018-06-01T11:47:13.201Z,29.70
2018-06-01T11:49:16.401Z,29.50
2018-06-01T11:51:19.663Z,29.30
2018-06-01T11:53:22.040Z,29.30
2018-06-01T11:55:24.519Z,29.20
2018-06-01T11:57:27.714Z,29.00
2018-06-01T11:59:30.924Z,29.00
2018-06-01T12:01:33.356Z,29.00
2018-06-01T12:03:36.564Z,29.10
2018-06-01T12:05:39.014Z,29.10
2018-06-01T12:07:41.446Z,29.30
2018-06-01T12:09:43.878Z,29.50
2018-06-01T12:11:46.313Z,29.80
2018-06-01T12:13:48.838Z,30.20
2018-06-01T12:15:51.272Z,30.60
2018-06-01T12:17:54.498Z,31.10
2018-06-01T12:19:56.917Z,31.10
2018-06-01T12:21:59.370Z,31.40
2018-06-01T12:24:01.917Z,31.50
2018-06-01T12:26:04.374Z,31.40
2018-06-01T12:28:06.880Z,31.40
2018-06-01T12:30:10.149Z,31.80
2018-06-01T12:32:12.590Z,31.80
2018-06-01T12:34:15.032Z,31.90
2018-06-01T12:36:18.269Z,31.70
2018-06-01T12:38:20.737Z,31.70
2018-06-01T12:40:23.176Z,31.50
2018-06-01T12:42:26.386Z,31.10
2018-06-01T12:44:28.817Z,31.10
2018-06-01T12:46:32.021Z,30.90
2018-06-01T12:48:34.457Z,30.90
2018-06-01T12:50:38.406Z,31.50
2018-06-01T12:52:40.844Z,31.50
2018-06-01T12:54:43.276Z,31.80
2018-06-01T12:56:45.736Z,32.20
2018-06-01T12:58:48.168Z,32.60
2018-06-01T13:00:51.392Z,32.70
2018-06-01T13:02:53.848Z,32.60
2018-06-01T13:04:56.282Z,32.40
2018-06-01T13:06:59.521Z,32.30
2018-06-01T13:09:01.960Z,32.30
2018-06-01T13:11:04.417Z,32.50
2018-06-01T13:13:06.848Z,32.50
2018-06-01T13:15:09.277Z,32.60
2018-06-01T13:17:11.769Z,32.30
2018-06-01T13:19:14.221Z,32.00
2018-06-01T13:21:16.710Z,32.00
2018-06-01T13:23:19.147Z,32.00
2018-06-01T13:25:21.585Z,31.80
2018-06-01T13:27:25.178Z,31.80
2018-06-01T13:29:28.395Z,31.90
2018-06-01T13:31:31.622Z,31.90
2018-06-01T13:33:34.060Z,31.90
2018-06-01T13:35:36.562Z,31.80
2018-06-01T13:37:39.001Z,31.50
2018-06-01T13:39:42.208Z,31.00
2018-06-01T13:41:44.644Z,31.00
2018-06-01T13:43:47.886Z,30.80
2018-06-01T13:45:50.326Z,30.80
2018-06-01T13:47:52.763Z,30.90
2018-06-01T13:49:55.289Z,30.90
2018-06-01T13:51:57.728Z,31.00
2018-06-01T13:54:00.244Z,31.10
2018-06-01T13:56:02.704Z,31.30
2018-06-01T13:58:05.144Z,31.40
2018-06-01T14:00:07.601Z,31.60
2018-06-01T14:02:10.857Z,31.80
2018-06-01T14:04:14.835Z,31.90
2018-06-01T14:06:17.269Z,31.90
2018-06-01T14:08:19.776Z,31.60
2018-06-01T14:10:22.206Z,31.40
2018-06-01T14:12:25.423Z,31.10
2018-06-01T14:14:27.902Z,31.10
2018-06-01T14:16:30.336Z,31.10
2018-06-01T14:18:32.781Z,30.90
2018-06-01T14:20:35.221Z,30.80
2018-06-01T14:22:37.684Z,30.70
2018-06-01T14:24:40.157Z,30.70
2018-06-01T14:26:42.629Z,30.70
2018-06-01T14:28:45.072Z,30.60
2018-06-01T14:30:47.556Z,30.50
2018-06-01T14:32:50.026Z,30.50
2018-06-01T14:34:52.496Z,30.50
2018-06-01T14:36:54.931Z,30.40
2018-06-01T14:38:58.153Z,30.50
2018-06-01T14:41:00.613Z,30.50
2018-06-01T14:43:03.093Z,30.50
2018-06-01T14:45:05.548Z,30.40
2018-06-01T14:47:08.093Z,30.30
2018-06-01T14:49:11.220Z,30.20
2018-06-01T14:51:13.685Z,30.20
2018-06-01T14:53:16.173Z,30.10
2018-06-01T14:55:18.626Z,30.10
2018-06-01T14:57:21.069Z,30.00
2018-06-01T14:59:23.654Z,29.90
2018-06-01T15:01:26.874Z,29.80
2018-06-01T15:03:29.332Z,29.80
2018-06-01T15:05:31.775Z,29.70
2018-06-01T15:07:34.220Z,29.60
2018-06-01T15:09:37.425Z,29.30
2018-06-01T15:11:40.656Z,29.20
2018-06-01T15:13:43.132Z,29.10
2018-06-01T15:15:45.577Z,29.00
2018-06-01T15:17:48.063Z,28.90
2018-06-01T15:19:50.625Z,28.80
2018-06-01T15:21:53.076Z,28.70
2018-06-01T15:23:55.512Z,28.60
2018-06-01T15:25:58.753Z,28.40
2018-06-01T15:28:01.226Z,28.40
2018-06-01T15:30:03.660Z,28.40
2018-06-01T15:32:06.881Z,28.20
2018-06-01T15:34:09.333Z,28.20
2018-06-01T15:36:11.804Z,28.10
2018-06-01T15:38:14.292Z,27.90
2018-06-01T15:40:16.738Z,27.80
2018-06-01T15:42:19.176Z,27.90
2018-06-01T15:44:23.129Z,27.90
2018-06-01T15:46:25.561Z,27.90
2018-06-01T15:48:28.793Z,28.00
2018-06-01T15:50:31.272Z,28.00
2018-06-01T15:52:33.704Z,28.20
2018-06-01T15:54:36.144Z,28.40
2018-06-01T15:56:38.603Z,28.50
2018-06-01T15:58:41.196Z,28.70
2018-06-01T16:00:43.604Z,28.90
2018-06-01T16:02:46.036Z,28.90
2018-06-01T16:04:49.268Z,29.00
2018-06-01T16:06:51.744Z,29.00
2018-06-01T16:08:54.216Z,29.10
2018-06-01T16:10:56.660Z,29.20
2018-06-01T16:12:59.157Z,29.30
2018-06-01T16:15:01.604Z,29.40
2018-06-01T16:17:04.096Z,29.50
2018-06-01T16:19:06.549Z,29.30
2018-06-01T16:21:09.037Z,29.30
2018-06-01T16:23:12.269Z,29.20
2018-06-01T16:25:15.513Z,29.40
2018-06-01T16:27:18.036Z,29.30
2018-06-01T16:29:21.246Z,29.40
2018-06-01T16:31:23.681Z,29.40
2018-06-01T16:33:27.614Z,29.30
2018-06-01T16:35:30.048Z,29.30
2018-06-01T16:37:33.383Z,29.00
2018-06-01T16:39:36.695Z,28.80
2018-06-01T16:41:39.172Z,28.80
2018-06-01T16:43:41.596Z,28.70
2018-06-01T16:45:44.805Z,28.50
2018-06-01T16:47:47.281Z,28.50
2018-06-01T16:49:50.455Z,28.40
2018-06-01T16:51:52.881Z,28.40
2018-06-01T16:53:55.304Z,28.30
2018-06-01T16:55:57.747Z,28.20
2018-06-01T16:58:00.952Z,28.30
2018-06-01T17:00:03.397Z,28.20
2018-06-01T17:02:06.597Z,28.10
2018-06-01T17:04:09.808Z,27.70
2018-06-01T17:06:12.281Z,27.70
2018-06-01T17:08:14.717Z,27.60
2018-06-01T17:10:18.048Z,27.50
2018-06-01T17:12:20.485Z,27.50
2018-06-01T17:14:22.984Z,27.60
2018-06-01T17:16:25.455Z,27.60
2018-06-01T17:18:27.901Z,27.50
2018-06-01T17:20:30.356Z,27.50
2018-06-01T17:22:33.565Z,27.20
2018-06-01T17:24:35.993Z,27.20
2018-06-01T17:26:39.205Z,27.10
2018-06-01T17:28:42.405Z,27.00
2018-06-01T17:30:44.844Z,27.00
2018-06-01T17:32:48.084Z,27.00
2018-06-01T17:34:50.529Z,26.90
2018-06-01T17:36:53.029Z,26.90
2018-06-01T17:38:55.459Z,26.90
2018-06-01T17:40:58.688Z,26.70
2018-06-01T17:43:01.157Z,26.70
2018-06-01T17:45:03.591Z,26.70
2018-06-01T17:47:06.097Z,26.50
2018-06-01T17:49:08.542Z,26.20
2018-06-01T17:51:11.025Z,25.90
2018-06-01T17:53:13.465Z,25.70
2018-06-01T17:55:16.661Z,25.30
2018-06-01T17:57:19.864Z,25.20
2018-06-01T17:59:22.365Z,25.20
2018-06-01T18:01:24.824Z,25.10
2018-06-01T18:03:27.256Z,25.00
2018-06-01T18:05:29.701Z,24.80
2018-06-01T18:07:32.144Z,24.70
2018-06-01T18:09:34.596Z,24.50
2018-06-01T18:11:37.884Z,24.30
2018-06-01T18:13:40.320Z,24.10
2018-06-01T18:15:43.533Z,23.90
2018-06-01T18:17:45.968Z,23.80
2018-06-01T18:19:49.315Z,23.70
2018-06-01T18:21:51.773Z,23.70
2018-06-01T18:23:54.242Z,23.70
2018-06-01T18:25:56.686Z,23.60
2018-06-01T18:27:59.186Z,23.60
2018-06-01T18:30:01.627Z,23.60
2018-06-01T18:32:04.067Z,23.60
2018-06-01T18:34:06.504Z,23.50
2018-06-01T18:36:08.961Z,23.50
2018-06-01T18:38:11.412Z,23.50
2018-06-01T18:40:13.857Z,23.50
2018-06-01T18:42:17.074Z,23.50
2018-06-01T18:44:19.557Z,23.50
2018-06-01T18:46:22.030Z,23.50
2018-06-01T18:48:24.496Z,23.50
2018-06-01T18:50:29.983Z,23.50
2018-06-01T18:52:33.309Z,23.50
2018-06-01T18:54:35.757Z,23.50
2018-06-01T18:56:38.962Z,23.60
2018-06-01T18:58:41.460Z,23.60
2018-06-01T19:00:49.633Z,23.60
2018-06-01T19:02:52.084Z,23.60
2018-06-01T19:04:55.322Z,23.50
2018-06-01T19:06:57.760Z,23.50
2018-06-01T19:09:00.262Z,23.50
2018-06-01T19:11:02.709Z,23.50
2018-06-01T19:13:05.206Z,23.40
2018-06-01T19:15:08.180Z,23.50
2018-06-01T19:17:10.657Z,23.40
2018-06-01T19:19:13.101Z,23.30
2018-06-01T19:21:15.553Z,23.30
2018-06-01T19:23:18.754Z,23.20
2018-06-01T19:25:21.197Z,23.20
2018-06-01T19:27:25.261Z,23.20
2018-06-01T19:29:27.701Z,23.20
2018-06-01T19:31:30.192Z,23.20
2018-06-01T19:33:32.653Z,23.20
2018-06-01T19:35:35.096Z,23.10
2018-06-01T19:37:38.324Z,23.00
2018-06-01T19:39:40.797Z,23.00
2018-06-01T19:41:43.260Z,23.00
2018-06-01T19:43:45.712Z,23.00
2018-06-01T19:45:48.184Z,23.00
2018-06-01T19:47:50.675Z,22.90
2018-06-01T19:49:53.153Z,22.90
2018-06-01T19:51:56.328Z,22.90
2018-06-01T19:53:59.932Z,22.80
2018-06-01T19:56:02.384Z,22.80
2018-06-01T19:58:04.812Z,22.80
2018-06-01T20:00:07.340Z,22.70
2018-06-01T20:02:09.777Z,22.70
2018-06-01T20:04:12.974Z,22.70
2018-06-01T20:06:16.497Z,22.70
2018-06-01T20:08:18.953Z,22.60
2018-06-01T20:10:21.398Z,22.40
2018-06-01T20:12:24.608Z,22.30
2018-06-01T20:14:27.184Z,22.30
2018-06-01T20:16:29.645Z,22.20
2018-06-01T20:18:32.081Z,22.10
2018-06-01T20:20:40.021Z,22.00
2018-06-01T20:22:43.405Z,22.00
2018-06-01T20:24:45.888Z,22.00
2018-06-01T20:26:49.281Z,22.00
2018-06-01T20:28:51.721Z,22.00
2018-06-01T20:30:54.168Z,21.90
2018-06-01T20:32:56.600Z,21.80
2018-06-01T20:34:59.043Z,21.70
2018-06-01T20:37:01.476Z,21.70
2018-06-01T20:39:05.636Z,21.70
2018-06-01T20:41:08.083Z,21.70
2018-06-01T20:43:10.850Z,21.60
2018-06-01T20:45:14.076Z,21.60
2018-06-01T20:47:16.572Z,21.60
2018-06-01T20:49:19.117Z,21.60
2018-06-01T20:51:21.587Z,21.50
2018-06-01T20:53:24.022Z,21.50
2018-06-01T20:55:27.235Z,21.40
2018-06-01T20:57:29.663Z,21.40
2018-06-01T20:59:32.184Z,21.40
2018-06-01T21:01:34.621Z,21.30
2018-06-01T21:03:37.120Z,21.30
2018-06-01T21:05:39.593Z,21.30
2018-06-01T21:07:42.044Z,21.30
2018-06-01T21:09:44.585Z,21.30
2018-06-01T21:11:46.997Z,21.30
2018-06-01T21:13:49.432Z,21.30
2018-06-01T21:15:51.870Z,21.40
2018-06-01T21:17:54.313Z,21.30
2018-06-01T21:19:56.787Z,21.30
2018-06-01T21:21:59.256Z,21.30
2018-06-01T21:24:01.705Z,21.30
2018-06-01T21:26:04.136Z,21.30
2018-06-01T21:28:06.587Z,21.30
2018-06-01T21:30:09.032Z,21.30
2018-06-01T21:32:11.500Z,21.30
2018-06-01T21:34:13.941Z,21.30
2018-06-01T21:36:16.376Z,21.30
2018-06-01T21:38:18.908Z,21.20
2018-06-01T21:40:21.380Z,21.20
2018-06-01T21:42:23.830Z,21.20
2018-06-01T21:44:26.272Z,21.10
2018-06-01T21:46:28.701Z,21.10
2018-06-01T21:48:31.164Z,21.00
2018-06-01T21:50:33.610Z,20.90
2018-06-01T21:52:36.074Z,20.80
2018-06-01T21:54:39.278Z,20.70
2018-06-01T21:56:41.777Z,20.70
2018-06-01T21:58:44.228Z,20.70
2018-06-01T22:00:46.697Z,20.70
2018-06-01T22:02:49.142Z,20.70
2018-06-01T22:04:51.640Z,20.70
2018-06-01T22:06:54.104Z,20.70
2018-06-01T22:08:56.577Z,20.70
2018-06-01T22:10:59.041Z,20.70
2018-06-01T22:13:01.521Z,20.70
2018-06-01T22:15:05.129Z,20.70
2018-06-01T22:17:07.586Z,20.70
2018-06-01T22:19:10.056Z,20.70
2018-06-01T22:21:12.525Z,20.70
2018-06-01T22:23:14.971Z,20.70
2018-06-01T22:25:17.424Z,20.60
2018-06-01T22:27:20.632Z,20.70
2018-06-01T22:29:23.088Z,20.60
2018-06-01T22:31:26.305Z,20.70
2018-06-01T22:33:28.759Z,20.70
2018-06-01T22:35:31.249Z,20.80
2018-06-01T22:37:33.700Z,20.80
2018-06-01T22:39:36.205Z,20.80
2018-06-01T22:41:38.641Z,20.80
2018-06-01T22:43:41.133Z,20.80
2018-06-01T22:45:43.580Z,20.70
2018-06-01T22:47:46.022Z,20.70
